Time;durP1;ratioP1;P1;durP2;ratioP2;P2;SDS_P1;SDS_P2;PMS_P1;PMS_P2;Temp;Humidity;BMP_temperature;BMP_pressure;BME280_temperature;BME280_humidity;BME280_pressure;Samples;Min_cycle;Max_cycle;Signal;HPM_P1;HPM_P2
2022/09/13 00:00:40;;;;;;;12.18;5.75;;;15.40;99.90;;;;;;5032683;28;20040;-69
2022/09/13 00:03:06;;;;;;;13.60;5.95;;;15.40;99.90;;;;;;5033412;28;20060;-70
2022/09/13 00:05:32;;;;;;;9.85;5.45;;;15.30;99.90;;;;;;5033047;28;20029;-68
2022/09/13 00:07:58;;;;;;;10.20;5.68;;;15.40;99.90;;;;;;5046362;28;20407;-66
2022/09/13 00:10:25;;;;;;;15.45;5.93;;;15.40;99.90;;;;;;5049462;28;20472;-68
2022/09/13 00:12:51;;;;;;;7.80;4.85;;;15.40;99.90;;;;;;5051616;28;20053;-67
2022/09/13 00:15:18;;;;;;;7.90;5.55;;;15.30;99.90;;;;;;5049030;28;20450;-66
2022/09/13 00:17:44;;;;;;;11.07;6.03;;;15.30;99.90;;;;;;5034840;28;20380;-66
2022/09/13 00:20:10;;;;;;;10.30;5.78;;;15.30;99.90;;;;;;5039767;28;20021;-67
2022/09/13 00:22:36;;;;;;;9.07;5.18;;;15.30;99.90;;;;;;5035190;28;20032;-65
2022/09/13 00:25:04;;;;;;;26.15;7.07;;;15.30;99.90;;;;;;5031661;28;20100;-70
2022/09/13 00:27:32;;;;;;;11.45;5.53;;;15.20;99.90;;;;;;5031674;28;20071;-67
2022/09/13 00:29:58;;;;;;;8.15;4.75;;;15.30;99.90;;;;;;5034976;28;20049;-66
2022/09/13 00:32:23;;;;;;;12.45;6.35;;;15.20;99.90;;;;;;5037234;28;20455;-69
2022/09/13 00:34:49;;;;;;;10.32;5.63;;;15.20;99.90;;;;;;5041440;28;20029;-69
2022/09/13 00:37:15;;;;;;;9.60;5.30;;;15.30;99.90;;;;;;5049024;28;20029;-68
2022/09/13 00:39:41;;;;;;;10.55;5.57;;;15.20;99.90;;;;;;5042629;28;20076;-69
2022/09/13 00:42:12;;;;;;;9.57;5.57;;;15.20;99.90;;;;;;5047724;28;20090;-69
2022/09/13 00:44:54;;;;;;;11.13;5.53;;;15.20;99.90;;;;;;5038105;28;20024;-69
2022/09/13 00:47:25;;;;;;;13.13;5.60;;;15.10;99.90;;;;;;5042991;28;20394;-68
2022/09/13 00:50:00;;;;;;;9.87;4.87;;;15.00;99.90;;;;;;5045368;28;20029;-67
2022/09/13 00:52:29;;;;;;;13.07;5.30;;;15.00;99.90;;;;;;5031982;28;20037;-69
2022/09/13 00:55:05;;;;;;;8.93;5.80;;;15.00;99.90;;;;;;5029686;28;20053;-63
2022/09/13 00:57:34;;;;;;;16.13;5.93;;;15.00;99.90;;;;;;5033223;28;20032;-68
2022/09/13 01:00:11;;;;;;;10.05;5.97;;;15.00;99.90;;;;;;5035640;28;20037;-69
2022/09/13 01:02:48;;;;;;;11.48;5.97;;;15.00;99.90;;;;;;5031017;28;20032;-69
2022/09/13 01:05:17;;;;;;;9.38;5.72;;;15.10;99.90;;;;;;5031068;28;20026;-71
2022/09/13 01:07:43;;;;;;;12.77;5.43;;;15.20;99.90;;;;;;5033418;28;20045;-68
2022/09/13 01:10:09;;;;;;;12.63;6.18;;;15.20;99.90;;;;;;5063264;28;20037;-70
2022/09/13 01:12:43;;;;;;;9.85;5.10;;;15.20;99.90;;;;;;5038464;28;20565;-67
2022/09/13 01:15:10;;;;;;;9.90;5.70;;;15.20;99.90;;;;;;5030804;28;20027;-69
2022/09/13 01:17:38;;;;;;;11.05;5.47;;;15.20;99.90;;;;;;5031431;28;20025;-69
2022/09/13 01:20:06;;;;;;;8.68;5.22;;;15.30;99.90;;;;;;5045137;28;20017;-69
2022/09/13 01:22:47;;;;;;;7.60;4.78;;;15.30;99.90;;;;;;5046949;28;20044;-66
2022/09/13 01:25:37;;;;;;;10.35;5.50;;;15.20;99.90;;;;;;5052089;28;20037;-69
2022/09/13 01:28:21;;;;;;;14.32;5.57;;;15.20;99.90;;;;;;5036689;28;20064;-70
2022/09/13 01:31:25;;;;;;;7.97;5.18;;;15.10;99.90;;;;;;5034630;28;20037;-68
2022/09/13 01:33:56;;;;;;;11.57;5.63;;;15.10;99.90;;;;;;5030044;28;20021;-66
2022/09/13 01:36:31;;;;;;;8.43;4.72;;;15.10;99.90;;;;;;5034942;28;20052;-65
2022/09/13 01:39:11;;;;;;;16.52;4.93;;;15.00;99.90;;;;;;5030197;28;20026;-64
2022/09/13 01:41:49;;;;;;;12.75;6.13;;;15.10;99.90;;;;;;5030525;28;20037;-68
2022/09/13 01:44:54;;;;;;;7.65;4.55;;;14.90;99.90;;;;;;5030328;28;20026;-67
2022/09/13 01:48:02;;;;;;;8.38;4.85;;;15.00;99.90;;;;;;5030717;28;20034;-67
2022/09/13 01:50:36;;;;;;;11.10;5.05;;;14.90;99.90;;;;;;5027851;28;20143;-67
2022/09/13 01:53:27;;;;;;;9.32;4.88;;;14.90;99.90;;;;;;5028249;28;20061;-69
2022/09/13 01:56:03;;;;;;;9.80;4.85;;;14.90;99.90;;;;;;5026803;28;20038;-69
2022/09/13 01:58:42;;;;;;;9.27;4.93;;;14.80;99.90;;;;;;5026662;28;20030;-68
2022/09/13 02:01:16;;;;;;;9.73;4.95;;;14.70;99.90;;;;;;5026677;28;20399;-69
2022/09/13 02:03:59;;;;;;;10.63;5.15;;;14.70;99.90;;;;;;5027119;28;20482;-68
2022/09/13 02:06:30;;;;;;;10.50;5.65;;;14.70;99.90;;;;;;5030448;28;20103;-69
2022/09/13 02:09:00;;;;;;;13.43;6.05;;;14.70;99.90;;;;;;5030579;28;20132;-69
2022/09/13 02:11:26;;;;;;;13.75;6.65;;;14.60;99.90;;;;;;5030627;28;20027;-69
2022/09/13 02:14:25;;;;;;;10.10;5.63;;;14.60;99.90;;;;;;5030453;28;20033;-69
2022/09/13 02:16:53;;;;;;;11.73;5.85;;;14.60;99.90;;;;;;4971591;28;20039;-69
2022/09/13 02:19:25;;;;;;;9.60;5.55;;;14.50;99.90;;;;;;4971235;28;20038;-69
2022/09/13 02:21:56;;;;;;;9.02;5.35;;;14.50;99.90;;;;;;4971616;28;20134;-68
2022/09/13 02:24:46;;;;;;;10.57;5.80;;;14.40;99.90;;;;;;4972127;28;20027;-69
2022/09/13 02:27:16;;;;;;;11.02;5.45;;;14.30;99.90;;;;;;4972346;28;20636;-69
2022/09/13 02:29:45;;;;;;;8.95;5.38;;;14.30;99.90;;;;;;4987324;28;20038;-69
2022/09/13 02:32:56;;;;;;;13.43;6.40;;;14.30;99.90;;;;;;4990983;28;20033;-68
2022/09/13 02:35:30;;;;;;;13.93;6.50;;;14.20;99.90;;;;;;4986020;28;20027;-69
2022/09/13 02:38:21;;;;;;;12.23;6.32;;;14.20;99.90;;;;;;4956588;28;20129;-69
2022/09/13 02:41:04;;;;;;;11.50;5.60;;;14.20;99.90;;;;;;4973229;28;20062;-66
2022/09/13 02:43:42;;;;;;;10.15;5.72;;;14.30;99.90;;;;;;4972528;28;20035;-69
2022/09/13 02:46:11;;;;;;;16.02;6.03;;;14.30;99.90;;;;;;4972887;28;20062;-68
2022/09/13 02:49:17;;;;;;;13.43;6.05;;;14.30;99.90;;;;;;4972515;28;20030;-67
2022/09/13 02:51:43;;;;;;;12.52;5.22;;;14.20;99.90;;;;;;4980577;28;20052;-69
2022/09/13 02:54:29;;;;;;;12.60;5.38;;;14.20;99.90;;;;;;5030742;28;20025;-68
2022/09/13 02:57:00;;;;;;;9.38;5.35;;;14.20;99.90;;;;;;5030922;28;20041;-69
2022/09/13 02:59:27;;;;;;;9.23;5.20;;;14.20;99.90;;;;;;5030023;28;20041;-68
2022/09/13 03:02:02;;;;;;;15.85;6.07;;;14.10;99.90;;;;;;5031111;28;20063;-68
2022/09/13 03:04:28;;;;;;;9.32;5.28;;;14.10;99.90;;;;;;5014213;28;20037;-69
2022/09/13 03:06:54;;;;;;;12.13;5.30;;;14.10;99.90;;;;;;5030812;28;20052;-69
2022/09/13 03:09:21;;;;;;;10.98;4.95;;;14.10;99.90;;;;;;5030269;28;20045;-65
2022/09/13 03:12:18;;;;;;;9.88;5.47;;;14.10;99.90;;;;;;5048507;28;20032;-69
2022/09/13 03:14:53;;;;;;;9.75;5.55;;;14.10;99.90;;;;;;5052387;28;20438;-69
2022/09/13 03:17:53;;;;;;;13.30;6.43;;;14.20;99.90;;;;;;5032424;28;20079;-69
2022/09/13 03:20:41;;;;;;;10.93;5.50;;;14.10;99.90;;;;;;5034067;28;20041;-69
2022/09/13 03:23:12;;;;;;;10.55;5.65;;;14.20;99.90;;;;;;5042675;28;20030;-68
2022/09/13 03:25:53;;;;;;;11.40;5.60;;;14.20;99.90;;;;;;5047312;28;20026;-69
2022/09/13 03:29:00;;;;;;;8.65;5.28;;;14.20;99.90;;;;;;5032331;28;20017;-70
2022/09/13 03:31:44;;;;;;;11.90;5.53;;;14.10;99.90;;;;;;5029271;28;20041;-69
2022/09/13 03:34:34;;;;;;;13.45;5.90;;;14.10;99.90;;;;;;5036222;28;20049;-68
2022/09/13 03:37:27;;;;;;;12.35;5.78;;;14.00;99.90;;;;;;5037652;28;20041;-70
2022/09/13 03:40:25;;;;;;;15.75;5.72;;;14.00;99.90;;;;;;4982629;28;20051;-69
2022/09/13 03:42:54;;;;;;;9.05;5.55;;;14.00;99.90;;;;;;4990692;28;20066;-69
2022/09/13 03:45:23;;;;;;;12.52;6.07;;;14.00;99.90;;;;;;4987536;28;20044;-70
2022/09/13 03:47:51;;;;;;;11.20;6.45;;;13.90;99.90;;;;;;4990648;28;20130;-69
2022/09/13 03:50:20;;;;;;;11.75;5.85;;;13.90;99.90;;;;;;4975994;28;20039;-68
2022/09/13 03:52:55;;;;;;;9.70;5.47;;;13.90;99.90;;;;;;4973112;28;20359;-70
2022/09/13 03:55:21;;;;;;;10.30;5.15;;;13.90;99.90;;;;;;4981543;28;20051;-68
2022/09/13 03:57:47;;;;;;;16.60;6.43;;;13.90;99.90;;;;;;4986302;28;20042;-69
2022/09/13 04:00:14;;;;;;;9.88;5.75;;;13.90;99.90;;;;;;4979547;28;20049;-69
2022/09/13 04:02:40;;;;;;;10.07;6.07;;;13.80;99.90;;;;;;4977008;28;20035;-70
2022/09/13 04:05:06;;;;;;;13.68;5.55;;;13.80;99.90;;;;;;4970519;28;20089;-69
2022/09/13 04:07:32;;;;;;;8.48;5.10;;;13.80;99.90;;;;;;4968874;28;20049;-68
2022/09/13 04:09:58;;;;;;;10.75;5.57;;;13.80;99.90;;;;;;4964787;28;20438;-68
2022/09/13 04:12:24;;;;;;;13.75;5.70;;;13.80;99.90;;;;;;4967908;28;20094;-69
2022/09/13 04:14:50;;;;;;;10.77;5.80;;;13.70;99.90;;;;;;4970406;28;20081;-69
2022/09/13 04:17:17;;;;;;;12.27;6.55;;;13.80;99.90;;;;;;5021913;28;20033;-69
2022/09/13 04:19:44;;;;;;;11.88;6.00;;;13.80;99.90;;;;;;5052164;28;20043;-69
2022/09/13 04:22:10;;;;;;;12.35;5.53;;;13.80;99.90;;;;;;5051977;28;20533;-69
2022/09/13 04:24:37;;;;;;;13.45;6.45;;;13.80;99.90;;;;;;5033208;28;20013;-69
2022/09/13 04:27:03;;;;;;;13.85;6.43;;;13.90;99.90;;;;;;5032519;28;20029;-69
2022/09/13 04:29:30;;;;;;;26.80;7.43;;;13.90;99.90;;;;;;5032572;28;20400;-69
2022/09/13 04:31:58;;;;;;;11.18;6.38;;;14.00;99.90;;;;;;5036410;28;20075;-70
2022/09/13 04:34:24;;;;;;;9.93;6.30;;;14.40;99.90;;;;;;5032305;28;20116;-67
2022/09/13 04:36:51;;;;;;;10.18;6.03;;;14.80;99.90;;;;;;5032496;28;20056;-70
2022/09/13 04:39:18;;;;;;;12.18;6.53;;;15.20;99.90;;;;;;5045995;28;20116;-68
2022/09/13 04:41:46;;;;;;;16.55;6.40;;;15.50;99.90;;;;;;5042043;28;20367;-70
2022/09/13 04:44:14;;;;;;;10.93;5.70;;;15.80;99.90;;;;;;5040475;28;20017;-69
2022/09/13 04:46:40;;;;;;;9.07;5.28;;;16.20;99.90;;;;;;5037950;28;20352;-70
2022/09/13 04:49:08;;;;;;;12.38;5.55;;;16.50;99.90;;;;;;5052158;28;20116;-70
2022/09/13 04:51:34;;;;;;;7.97;4.88;;;16.90;99.90;;;;;;5047892;28;20028;-70
2022/09/13 04:53:59;;;;;;;11.18;5.80;;;16.20;99.90;;;;;;5032499;28;20026;-69
2022/09/13 04:56:26;;;;;;;9.50;5.47;;;16.70;99.90;;;;;;5032182;28;20017;-69
2022/09/13 04:58:54;;;;;;;12.23;5.72;;;17.20;99.90;;;;;;5032109;28;20043;-70
2022/09/13 05:01:21;;;;;;;9.98;5.18;;;17.40;99.90;;;;;;5031684;28;20033;-70
2022/09/13 05:03:47;;;;;;;9.45;5.43;;;17.20;99.90;;;;;;5033244;28;20475;-69
2022/09/13 05:06:18;;;;;;;15.48;6.03;;;16.60;99.90;;;;;;5051526;28;20083;-69
2022/09/13 05:08:53;;;;;;;14.48;6.07;;;17.40;99.90;;;;;;5044972;28;20037;-70
2022/09/13 05:11:23;;;;;;;9.48;4.28;;;17.90;99.90;;;;;;5050419;28;20021;-70
2022/09/13 05:13:55;;;;;;;8.32;5.50;;;17.00;99.90;;;;;;5046246;28;20021;-69
2022/09/13 05:16:23;;;;;;;10.32;5.05;;;17.20;99.90;;;;;;5040460;28;20029;-69
2022/09/13 05:18:49;;;;;;;12.45;6.43;;;17.20;99.90;;;;;;5036813;28;20500;-70
2022/09/13 05:21:15;;;;;;;8.93;4.75;;;17.30;99.90;;;;;;5032030;28;20077;-69
2022/09/13 05:23:41;;;;;;;9.40;6.00;;;16.90;99.90;;;;;;5035714;28;20018;-69
2022/09/13 05:26:07;;;;;;;11.38;5.85;;;17.50;99.90;;;;;;5031957;28;20021;-69
2022/09/13 05:28:35;;;;;;;9.02;5.00;;;18.00;99.90;;;;;;5031858;28;20371;-69
2022/09/13 05:31:06;;;;;;;9.98;5.20;;;17.40;99.90;;;;;;5031862;28;20471;-69
2022/09/13 05:33:34;;;;;;;11.40;4.93;;;17.10;99.90;;;;;;5031985;28;20100;-69
2022/09/13 05:36:00;;;;;;;13.38;5.47;;;17.20;99.90;;;;;;5045729;28;20029;-70
2022/09/13 05:38:26;;;;;;;11.52;5.38;;;17.20;99.90;;;;;;5040059;28;20032;-70
2022/09/13 05:40:57;;;;;;;12.65;5.47;;;16.90;99.90;;;;;;5046743;28;20640;-69
2022/09/13 05:43:24;;;;;;;11.88;6.32;;;16.80;99.90;;;;;;5055403;28;20021;-70
2022/09/13 05:45:50;;;;;;;10.15;5.25;;;17.00;99.90;;;;;;5051786;28;20079;-69
2022/09/13 05:48:16;;;;;;;8.45;5.57;;;17.00;99.90;;;;;;5036497;28;20105;-69
2022/09/13 05:50:41;;;;;;;10.95;6.47;;;17.20;99.90;;;;;;5035890;28;20034;-69
2022/09/13 05:53:08;;;;;;;15.25;6.75;;;17.30;99.90;;;;;;5038712;28;20383;-69
2022/09/13 05:55:34;;;;;;;13.95;6.38;;;17.50;99.90;;;;;;5046779;28;20392;-70
2022/09/13 05:58:03;;;;;;;11.93;6.63;;;17.40;99.90;;;;;;5035312;28;20039;-70
2022/09/13 06:00:30;;;;;;;11.38;6.28;;;17.30;99.90;;;;;;5035254;28;20036;-66
2022/09/13 06:02:56;;;;;;;11.50;5.88;;;17.40;99.90;;;;;;5049604;28;20597;-69
2022/09/13 06:05:22;;;;;;;11.32;5.63;;;17.30;99.90;;;;;;5049410;28;20048;-69
2022/09/13 06:07:48;;;;;;;11.13;4.93;;;17.00;99.90;;;;;;5048735;28;20098;-70
2022/09/13 06:10:13;;;;;;;11.00;5.25;;;16.70;99.90;;;;;;5036001;28;20492;-70
2022/09/13 06:12:39;;;;;;;12.02;4.93;;;17.10;99.90;;;;;;5035724;28;20026;-67
2022/09/13 06:15:06;;;;;;;8.68;5.20;;;17.00;99.90;;;;;;5039172;28;20025;-69
2022/09/13 06:17:31;;;;;;;10.77;5.68;;;17.30;99.90;;;;;;5045783;28;20049;-70
2022/09/13 06:19:57;;;;;;;10.30;5.80;;;17.30;99.90;;;;;;5034999;28;20021;-69
2022/09/13 06:22:23;;;;;;;12.48;6.10;;;17.50;99.90;;;;;;5042828;28;20082;-71
2022/09/13 06:24:49;;;;;;;12.27;6.43;;;17.30;99.90;;;;;;5041627;28;20484;-70
2022/09/13 06:27:14;;;;;;;14.60;6.20;;;17.60;99.90;;;;;;5034904;28;20071;-69
2022/09/13 06:29:40;;;;;;;10.68;4.85;;;17.70;99.90;;;;;;5035430;28;20376;-69
2022/09/13 06:32:06;;;;;;;10.60;5.05;;;17.90;99.90;;;;;;5035524;28;20455;-69
2022/09/13 06:34:32;;;;;;;11.02;4.72;;;17.90;99.90;;;;;;5038443;28;20100;-67
2022/09/13 06:36:58;;;;;;;10.38;5.13;;;18.00;99.90;;;;;;5036537;28;20026;-67
2022/09/13 06:39:24;;;;;;;9.93;5.50;;;18.30;99.90;;;;;;5052770;28;20037;-67
2022/09/13 06:41:50;;;;;;;13.20;5.47;;;17.90;99.90;;;;;;5045664;28;20403;-66
2022/09/13 06:44:19;;;;;;;9.40;4.60;;;17.90;99.90;;;;;;5047234;28;20027;-66
2022/09/13 06:46:45;;;;;;;15.32;5.70;;;18.00;99.90;;;;;;5034914;28;20369;-66
2022/09/13 06:49:11;;;;;;;9.75;5.03;;;18.00;99.90;;;;;;5034800;28;20024;-66
2022/09/13 06:51:36;;;;;;;12.30;5.80;;;18.20;99.90;;;;;;5035030;28;20025;-68
2022/09/13 06:54:03;;;;;;;9.57;5.50;;;18.40;99.90;;;;;;5043612;28;20034;-66
2022/09/13 06:56:38;;;;;;;12.63;5.28;;;18.30;99.90;;;;;;5037580;28;20021;-68
2022/09/13 06:59:06;;;;;;;9.45;5.72;;;18.60;99.90;;;;;;5038777;28;20373;-68
2022/09/13 07:01:34;;;;;;;12.35;5.78;;;18.70;99.90;;;;;;5037823;28;20108;-68
2022/09/13 07:04:04;;;;;;;12.20;5.20;;;18.90;99.90;;;;;;5033567;28;20075;-67
2022/09/13 07:06:33;;;;;;;8.23;5.13;;;18.90;99.90;;;;;;5033283;28;20534;-68
2022/09/13 07:09:01;;;;;;;9.07;4.63;;;19.20;99.90;;;;;;5039850;28;20073;-68
2022/09/13 07:11:32;;;;;;;10.75;5.00;;;19.40;99.90;;;;;;5051743;28;20040;-67
2022/09/13 07:13:58;;;;;;;9.20;5.07;;;19.40;99.90;;;;;;5033944;28;20450;-67
2022/09/13 07:16:27;;;;;;;12.52;4.95;;;19.50;99.90;;;;;;5033433;28;20048;-68
2022/09/13 07:18:55;;;;;;;11.15;5.15;;;19.80;99.90;;;;;;5033637;28;20033;-68
2022/09/13 07:21:22;;;;;;;10.30;5.20;;;19.70;99.90;;;;;;5034074;28;20419;-67
2022/09/13 07:23:48;;;;;;;6.65;4.78;;;19.80;99.90;;;;;;5039051;28;20071;-67
2022/09/13 07:26:14;;;;;;;7.95;4.97;;;19.90;99.90;;;;;;5050342;28;20475;-68
2022/09/13 07:28:42;;;;;;;10.15;5.97;;;20.20;99.90;;;;;;5040071;28;20024;-67
2022/09/13 07:31:14;;;;;;;10.27;5.38;;;20.30;99.90;;;;;;5033367;28;20467;-67
2022/09/13 07:33:41;;;;;;;;;;;20.40;99.90;;;;;;5039666;28;20104;-66
2022/09/13 07:36:07;;;;;;;9.13;4.85;;;20.40;99.90;;;;;;5033294;28;20364;-68
2022/09/13 07:38:36;;;;;;;11.73;4.55;;;20.40;99.90;;;;;;5033253;28;20171;-67
2022/09/13 07:41:05;;;;;;;9.13;4.45;;;20.40;99.90;;;;;;5033521;28;20037;-68
2022/09/13 07:43:35;;;;;;;12.02;5.22;;;20.60;99.90;;;;;;5038885;28;20033;-67
2022/09/13 07:46:04;;;;;;;10.77;4.15;;;20.60;99.90;;;;;;5053373;28;20142;-68
2022/09/13 07:48:33;;;;;;;9.23;4.85;;;20.60;99.90;;;;;;5053561;28;20028;-67
2022/09/13 07:51:08;;;;;;;8.05;4.38;;;20.60;99.90;;;;;;5052760;28;20493;-66
2022/09/13 07:53:35;;;;;;;5.70;4.20;;;20.80;99.90;;;;;;5040730;28;20033;-68
2022/09/13 07:56:06;;;;;;;9.60;4.75;;;21.10;99.90;;;;;;5033002;28;20049;-68
2022/09/13 07:58:34;;;;;;;6.85;4.00;;;21.00;99.90;;;;;;5033286;28;20036;-67
2022/09/13 08:01:08;;;;;;;8.60;4.38;;;21.00;99.90;;;;;;5036647;28;20037;-68
2022/09/13 08:03:35;;;;;;;6.20;3.80;;;21.30;99.90;;;;;;5042584;28;20028;-66
2022/09/13 08:06:03;;;;;;;8.07;4.15;;;21.20;99.90;;;;;;5039179;28;20021;-67
2022/09/13 08:08:29;;;;;;;8.30;4.72;;;21.30;99.80;;;;;;5046811;28;20056;-67
2022/09/13 08:10:55;;;;;;;10.55;4.40;;;21.30;99.90;;;;;;5044525;28;20025;-68
2022/09/13 08:13:21;;;;;;;8.52;4.13;;;21.50;99.90;;;;;;5034930;28;20476;-67
2022/09/13 08:15:48;;;;;;;8.20;4.00;;;21.50;99.90;;;;;;5032956;28;20108;-66
2022/09/13 08:18:18;;;;;;;6.90;4.18;;;21.60;99.90;;;;;;5033068;28;20091;-67
2022/09/13 08:20:44;;;;;;;7.78;4.10;;;21.60;99.90;;;;;;5040990;28;20033;-68
2022/09/13 08:23:12;;;;;;;7.25;4.40;;;21.60;99.90;;;;;;5049489;28;20033;-67
2022/09/13 08:25:39;;;;;;;9.18;3.90;;;21.80;99.90;;;;;;5045325;28;20076;-67
2022/09/13 08:28:06;;;;;;;7.03;3.35;;;21.80;99.90;;;;;;5031943;28;20033;-67
2022/09/13 08:30:35;;;;;;;7.72;3.90;;;21.80;99.40;;;;;;5032199;28;20100;-68
2022/09/13 08:33:03;;;;;;;6.00;3.90;;;21.80;99.90;;;;;;5043477;28;20467;-67
2022/09/13 08:35:29;;;;;;;11.23;4.15;;;21.90;99.90;;;;;;5035022;28;20021;-67
2022/09/13 08:37:56;;;;;;;9.00;3.22;;;22.20;99.90;;;;;;5033044;28;20053;-66
2022/09/13 08:40:24;;;;;;;8.35;4.18;;;22.30;99.90;;;;;;5046527;28;20033;-65
2022/09/13 08:43:10;;;;;;;5.72;2.58;;;22.40;99.90;;;;;;5040728;28;20025;-66
2022/09/13 08:45:36;;;;;;;6.25;3.08;;;22.40;99.90;;;;;;5035393;28;20040;-67
2022/09/13 08:48:10;;;;;;;6.90;2.97;;;22.20;98.30;;;;;;5033102;28;20029;-68
2022/09/13 08:50:37;;;;;;;7.15;3.50;;;22.10;98.80;;;;;;5044869;28;20087;-67
2022/09/13 08:53:12;;;;;;;6.65;3.50;;;21.90;99.90;;;;;;5032397;28;20029;-67
2022/09/13 08:56:01;;;;;;;6.32;2.85;;;22.10;99.90;;;;;;5034050;28;20021;-65
2022/09/13 08:58:54;;;;;;;6.65;3.22;;;22.20;98.20;;;;;;5046508;28;20433;-66
2022/09/13 09:01:23;;;;;;;5.40;3.60;;;22.10;97.70;;;;;;5040169;28;20623;-66
2022/09/13 09:03:52;;;;;;;7.18;3.00;;;22.30;99.90;;;;;;5044448;28;20048;-67
2022/09/13 09:06:18;;;;;;;4.28;3.00;;;22.40;99.90;;;;;;5045992;28;20105;-67
2022/09/13 09:08:51;;;;;;;4.43;2.95;;;22.30;99.90;;;;;;5059941;28;20033;-68
2022/09/13 09:11:40;;;;;;;;;;;22.40;98.50;;;;;;5043708;28;20021;-66
2022/09/13 09:14:25;;;;;;;7.13;3.33;;;22.50;97.40;;;;;;5028666;28;20279;-67
2022/09/13 09:17:00;;;;;;;5.13;2.60;;;22.50;99.50;;;;;;5028639;28;20128;-66
2022/09/13 09:19:42;;;;;;;5.18;2.78;;;22.50;99.30;;;;;;5029496;28;20033;-68
2022/09/13 09:22:17;;;;;;;12.48;2.95;;;22.50;99.80;;;;;;5022877;28;20033;-67
2022/09/13 09:24:48;;;;;;;4.10;2.72;;;22.60;99.00;;;;;;5009805;28;20038;-67
2022/09/13 09:27:16;;;;;;;6.80;2.97;;;22.90;99.90;;;;;;5029574;28;20042;-67
2022/09/13 09:29:43;;;;;;;4.15;2.50;;;23.00;99.90;;;;;;5020210;28;20494;-67
2022/09/13 09:32:37;;;;;;;7.93;3.10;;;23.00;99.90;;;;;;5010174;28;20025;-67
2022/09/13 09:35:26;;;;;;;6.22;3.25;;;23.00;99.90;;;;;;4965840;28;20049;-67
2022/09/13 09:38:09;;;;;;;5.43;2.63;;;23.10;99.90;;;;;;4970860;28;20117;-68
2022/09/13 09:40:37;;;;;;;3.75;2.53;;;22.90;99.90;;;;;;4954800;28;20151;-66
2022/09/13 09:43:15;;;;;;;4.80;3.15;;;23.00;99.90;;;;;;4970637;28;20103;-68
2022/09/13 09:45:43;;;;;;;6.38;3.05;;;23.10;99.90;;;;;;4969956;28;20045;-66
2022/09/13 09:48:15;;;;;;;6.38;3.15;;;23.10;99.90;;;;;;4970074;28;20031;-67
2022/09/13 09:50:42;;;;;;;;;;;;;;;;;;4964343;28;20038;-66
2022/09/13 09:53:30;;;;;;;4.78;2.78;;;23.30;99.90;;;;;;4989149;28;20107;-66
2022/09/13 09:56:11;;;;;;;7.13;2.92;;;23.40;99.90;;;;;;4989616;28;20121;-67
2022/09/13 09:58:38;;;;;;;4.55;2.70;;;23.20;99.90;;;;;;4989283;28;20368;-66
2022/09/13 10:01:05;;;;;;;4.82;2.67;;;23.10;99.90;;;;;;4985722;28;20440;-66
2022/09/13 10:03:33;;;;;;;4.63;2.90;;;23.50;99.90;;;;;;4981184;28;20052;-67
2022/09/13 10:06:05;;;;;;;5.53;3.10;;;23.50;99.90;;;;;;4986880;28;20062;-67
2022/09/13 10:08:35;;;;;;;;;;;23.50;99.90;;;;;;4989486;28;20073;-66
2022/09/13 10:11:02;;;;;;;5.10;2.25;;;23.40;97.80;;;;;;4980822;28;20420;-67
2022/09/13 10:13:31;;;;;;;2.63;2.10;;;23.40;96.90;;;;;;5049677;28;20067;-67
2022/09/13 10:16:24;;;;;;;4.28;2.70;;;23.50;98.40;;;;;;5050968;28;20025;-65
2022/09/13 10:18:50;;;;;;;6.00;2.67;;;23.50;97.30;;;;;;5009062;28;20092;-67
2022/09/13 10:21:16;;;;;;;7.57;3.33;;;23.50;97.80;;;;;;5008676;28;20046;-67
2022/09/13 10:23:43;;;;;;;5.60;3.17;;;23.30;97.00;;;;;;5008932;28;20034;-66
2022/09/13 10:26:12;;;;;;;4.78;3.13;;;23.30;97.90;;;;;;5011078;28;20587;-68
2022/09/13 10:28:57;;;;;;;4.20;2.75;;;23.20;95.90;;;;;;5011485;28;20026;-68
2022/09/13 10:31:30;;;;;;;5.65;3.08;;;23.30;97.30;;;;;;5011939;28;20173;-67
2022/09/13 10:34:03;;;;;;;6.25;2.72;;;23.30;97.70;;;;;;5011571;28;20591;-67
2022/09/13 10:36:34;;;;;;;3.15;2.47;;;23.50;97.60;;;;;;5010453;28;20121;-66
2022/09/13 10:39:04;;;;;;;3.92;2.30;;;23.60;98.20;;;;;;5011459;28;20038;-67
2022/09/13 10:41:41;;;;;;;4.72;2.50;;;23.70;96.20;;;;;;5010430;28;20429;-67
2022/09/13 10:44:25;;;;;;;4.18;2.75;;;23.70;96.70;;;;;;5011343;28;20037;-67
2022/09/13 10:46:51;;;;;;;2.42;2.05;;;23.80;97.70;;;;;;5011800;28;20057;-63
2022/09/13 10:49:41;;;;;;;3.97;1.90;;;23.60;97.30;;;;;;5011480;28;20037;-66
2022/09/13 10:52:34;;;;;;;2.92;2.17;;;23.70;96.60;;;;;;5011248;28;20038;-67
2022/09/13 10:55:30;;;;;;;3.72;2.50;;;23.50;97.80;;;;;;5017359;28;20110;-63
2022/09/13 10:58:01;;;;;;;5.20;2.33;;;23.70;97.00;;;;;;5050522;28;20029;-66
2022/09/13 11:00:53;;;;;;;2.95;2.10;;;23.90;97.90;;;;;;5038744;28;20040;-67
2022/09/13 11:03:27;;;;;;;4.43;2.35;;;24.00;98.50;;;;;;5048271;28;20497;-65
2022/09/13 11:06:25;;;;;;;3.10;2.42;;;24.10;97.10;;;;;;5051187;28;20479;-67
2022/09/13 11:08:57;;;;;;;3.58;2.13;;;24.30;96.90;;;;;;5045263;28;20052;-67
2022/09/13 11:11:44;;;;;;;5.93;2.70;;;24.30;95.30;;;;;;5035160;28;20032;-66
2022/09/13 11:14:31;;;;;;;4.40;2.47;;;24.10;94.70;;;;;;5033846;28;20391;-66
2022/09/13 11:17:23;;;;;;;2.60;2.00;;;24.10;95.60;;;;;;5033711;28;20037;-66
2022/09/13 11:20:09;;;;;;;8.13;2.83;;;24.20;97.70;;;;;;5043166;28;20395;-67
2022/09/13 11:22:59;;;;;;;3.95;2.70;;;24.20;96.50;;;;;;5043749;28;20558;-67
2022/09/13 11:25:47;;;;;;;3.30;2.22;;;24.10;94.90;;;;;;5038237;28;20021;-66
2022/09/13 11:28:33;;;;;;;3.90;1.80;;;24.00;96.20;;;;;;5039720;28;20029;-67
2022/09/13 11:31:13;;;;;;;2.65;2.10;;;23.90;95.00;;;;;;5033444;28;20028;-67
2022/09/13 11:33:52;;;;;;;4.38;2.08;;;23.80;95.70;;;;;;5033402;28;20040;-66
2022/09/13 11:36:45;;;;;;;3.65;2.08;;;23.80;95.50;;;;;;5040837;28;20021;-66
2022/09/13 11:39:20;;;;;;;3.33;2.42;;;23.50;94.40;;;;;;5053094;28;20052;-64
2022/09/13 11:42:03;;;;;;;4.18;2.05;;;23.70;96.40;;;;;;5051088;28;20189;-66
2022/09/13 11:44:48;;;;;;;2.25;1.85;;;24.00;95.20;;;;;;5031961;28;20028;-67
2022/09/13 11:47:35;;;;;;;6.20;2.38;;;24.20;95.60;;;;;;5047410;28;20040;-66
2022/09/13 11:50:38;;;;;;;2.35;1.85;;;24.40;96.30;;;;;;5039209;28;20033;-67
2022/09/13 11:53:10;;;;;;;2.78;2.03;;;24.20;96.50;;;;;;5035325;28;20067;-67
2022/09/13 11:55:46;;;;;;;4.10;2.28;;;24.20;96.70;;;;;;5032326;28;20045;-67
2022/09/13 11:58:28;;;;;;;4.47;2.30;;;24.30;96.30;;;;;;5043985;28;20411;-68
2022/09/13 12:00:59;;;;;;;2.85;1.98;;;24.30;97.20;;;;;;5035524;28;20052;-66
2022/09/13 12:03:46;;;;;;;3.30;1.97;;;24.50;96.80;;;;;;5041244;28;20404;-65
2022/09/13 12:06:22;;;;;;;4.80;2.33;;;24.50;97.10;;;;;;5036632;28;20293;-66
2022/09/13 12:08:53;;;;;;;3.45;2.28;;;24.40;96.70;;;;;;5052208;28;20044;-67
2022/09/13 12:11:23;;;;;;;3.45;2.42;;;24.40;96.70;;;;;;5035984;28;20480;-66
2022/09/13 12:13:53;;;;;;;3.13;2.15;;;24.50;98.50;;;;;;5052905;28;20543;-64
2022/09/13 12:16:27;;;;;;;5.10;2.55;;;24.30;97.90;;;;;;5040576;28;20490;-67
2022/09/13 12:19:11;;;;;;;8.40;2.65;;;24.30;95.90;;;;;;5033900;28;20022;-66
2022/09/13 12:21:39;;;;;;;2.65;1.80;;;24.30;97.40;;;;;;5034383;28;20040;-67
2022/09/13 12:24:22;;;;;;;4.57;2.08;;;24.30;97.10;;;;;;5034289;28;20027;-67
2022/09/13 12:27:07;;;;;;;4.57;2.17;;;24.30;96.60;;;;;;5032948;28;20029;-67
2022/09/13 12:29:47;;;;;;;3.10;2.08;;;24.30;96.60;;;;;;5033225;28;20029;-67
2022/09/13 12:32:15;;;;;;;2.88;2.08;;;24.40;95.80;;;;;;5036781;28;20112;-66
2022/09/13 12:35:06;;;;;;;5.60;2.55;;;24.60;96.40;;;;;;5033457;28;20434;-65
2022/09/13 12:37:47;;;;;;;4.57;1.93;;;24.70;97.00;;;;;;5030871;28;20033;-66
2022/09/13 12:40:36;;;;;;;3.50;2.00;;;24.60;96.00;;;;;;5029500;28;20041;-68
2022/09/13 12:43:18;;;;;;;5.47;2.15;;;24.60;96.60;;;;;;5022993;28;20136;-66
2022/09/13 12:46:03;;;;;;;2.35;1.75;;;;;;;;;;5030845;28;20034;-68
2022/09/13 12:49:06;;;;;;;2.83;2.03;;;24.80;97.60;;;;;;5030290;28;20037;-68
2022/09/13 12:52:11;;;;;;;3.45;2.05;;;24.70;97.20;;;;;;5018193;28;20491;-69
2022/09/13 12:55:05;;;;;;;2.88;1.80;;;24.70;97.40;;;;;;5029975;28;20036;-67
2022/09/13 12:57:44;;;;;;;2.55;1.90;;;24.80;97.40;;;;;;5029613;28;20029;-67
2022/09/13 13:00:27;;;;;;;3.42;1.60;;;24.60;96.20;;;;;;5030182;28;20029;-68
2022/09/13 13:02:56;;;;;;;3.85;1.63;;;24.60;96.90;;;;;;5030505;28;20381;-68
2022/09/13 13:05:32;;;;;;;2.85;1.67;;;24.50;96.80;;;;;;5030003;28;20025;-69
2022/09/13 13:08:26;;;;;;;2.70;1.58;;;24.50;97.60;;;;;;5032159;28;20060;-69
2022/09/13 13:11:13;;;;;;;3.67;1.90;;;24.40;96.10;;;;;;5033823;28;20128;-69
2022/09/13 13:13:44;;;;;;;3.80;1.52;;;24.30;96.60;;;;;;5028600;28;20036;-67
2022/09/13 13:16:30;;;;;;;4.23;1.70;;;24.40;98.20;;;;;;5035745;28;20033;-68
2022/09/13 13:19:01;;;;;;;3.53;1.98;;;24.50;98.10;;;;;;5031668;28;20081;-68